Time;durP1;ratioP1;P1;durP2;ratioP2;P2;SDS_P1;SDS_P2;PMS_P1;PMS_P2;Temp;Humidity;BMP_temperature;BMP_pressure;BME280_temperature;BME280_humidity;BME280_pressure;Samples;Min_cycle;Max_cycle;Signal;HPM_P1;HPM_P2
2023/01/25 00:02:15;;;;;;;28.77;15.07;;;2.00;99.90;;;-141.84;83.15;18777.47;5052853;28;20237;-66
2023/01/25 00:04:43;;;;;;;30.67;16.73;;;1.90;99.90;;;-141.84;83.41;18763.25;5052785;28;20644;-66
2023/01/25 00:07:11;;;;;;;25.87;15.40;;;1.90;99.90;;;-141.84;83.34;18771.38;5052957;28;20229;-66
2023/01/25 00:09:41;;;;;;;27.53;16.40;;;1.90;99.90;;;-141.84;82.70;18779.50;5052578;28;20226;-66
2023/01/25 00:12:09;;;;;;;25.10;15.50;;;2.00;99.90;;;-141.84;82.38;18791.69;5053304;28;20205;-66
2023/01/25 00:14:37;;;;;;;27.00;15.30;;;2.00;99.90;;;-141.84;82.43;18759.19;5032950;28;20688;-67
2023/01/25 00:17:05;;;;;;;27.23;15.30;;;2.00;99.90;;;-141.84;82.37;18791.69;5032668;28;20245;-67
2023/01/25 00:19:33;;;;;;;27.83;15.50;;;2.00;99.90;;;-141.84;82.67;18777.47;5032806;28;20230;-66
2023/01/25 00:22:02;;;;;;;24.37;15.23;;;2.00;99.90;;;-141.84;81.96;18769.34;5032847;28;20230;-66
2023/01/25 00:24:30;;;;;;;27.77;16.20;;;2.00;99.90;;;-141.84;81.39;18773.41;5032733;28;20264;-66
2023/01/25 00:26:59;;;;;;;24.57;15.20;;;2.00;99.90;;;-141.84;80.91;18789.66;5033257;28;20206;-66
2023/01/25 00:29:27;;;;;;;23.90;14.53;;;2.00;99.90;;;-141.84;81.11;18771.38;5032475;28;20226;-66
2023/01/25 00:32:23;;;;;;;26.83;14.73;;;1.90;99.90;;;-141.84;81.41;18775.44;5032527;28;20234;-67
2023/01/25 00:34:52;;;;;;;23.20;13.77;;;1.90;99.90;;;-141.84;80.58;18814.03;5032556;28;20606;-66
2023/01/25 00:37:28;;;;;;;23.57;14.60;;;1.90;99.90;;;-141.84;81.05;18787.63;5032677;28;20229;-66
2023/01/25 00:39:56;;;;;;;25.67;14.97;;;1.90;99.90;;;-141.84;81.35;18767.31;5032505;28;20222;-65
2023/01/25 00:42:26;;;;;;;27.83;15.57;;;1.90;99.90;;;-141.84;81.34;18791.69;5032469;28;20221;-66
2023/01/25 00:44:54;;;;;;;25.97;14.77;;;1.90;99.90;;;-141.84;81.45;18783.56;5032848;28;20204;-66
2023/01/25 00:47:22;;;;;;;25.60;14.93;;;2.00;99.90;;;-141.84;82.05;18787.63;5032246;28;20222;-66
2023/01/25 00:49:50;;;;;;;24.80;14.57;;;1.90;99.90;;;-141.84;81.98;18797.78;5032303;28;20225;-66
2023/01/25 00:52:19;;;;;;;24.27;14.57;;;1.90;99.90;;;-141.84;82.31;18757.16;5031584;28;20222;-67
2023/01/25 00:54:47;;;;;;;25.43;14.83;;;1.90;99.90;;;-141.84;82.17;18789.66;5032362;28;20221;-67
2023/01/25 00:57:16;;;;;;;25.40;15.40;;;1.90;99.90;;;-141.84;81.88;18785.59;5031877;28;20229;-67
2023/01/25 00:59:46;;;;;;;24.93;14.80;;;1.90;99.90;;;-141.84;81.98;18795.75;5032494;28;20369;-66
2023/01/25 01:02:14;;;;;;;24.70;14.93;;;2.00;99.90;;;-141.84;82.18;18785.59;5031882;28;20636;-66
2023/01/25 01:04:42;;;;;;;27.10;15.53;;;2.00;99.90;;;-141.84;82.75;18773.41;5044332;28;20247;-67
2023/01/25 01:07:13;;;;;;;28.53;16.20;;;1.90;99.90;;;-141.84;83.12;18773.41;5051703;28;20232;-66
2023/01/25 01:09:42;;;;;;;26.67;16.00;;;1.90;99.90;;;-141.84;82.78;18809.97;5051524;28;20709;-66
2023/01/25 01:12:10;;;;;;;31.30;17.63;;;2.00;99.90;;;-141.84;82.40;18779.50;5051980;28;20553;-66
2023/01/25 01:14:38;;;;;;;28.87;16.17;;;2.00;99.90;;;-141.84;82.13;18747.00;5052054;28;20577;-68
2023/01/25 01:17:08;;;;;;;25.83;15.27;;;2.00;99.90;;;-141.84;81.97;18785.59;5051596;28;20722;-67
2023/01/25 01:19:36;;;;;;;27.20;16.17;;;2.00;99.90;;;-141.84;82.41;18753.09;5051518;28;20237;-65
2023/01/25 01:22:04;;;;;;;27.37;16.83;;;2.00;99.90;;;-141.84;82.19;18795.75;5051692;28;20233;-66
2023/01/25 01:24:32;;;;;;;26.10;15.90;;;2.10;99.90;;;-141.84;82.31;18755.13;5051715;28;20221;-66
2023/01/25 01:27:00;;;;;;;28.57;16.13;;;2.00;99.90;;;-141.84;82.72;18767.31;5052078;28;20197;-66
2023/01/25 01:29:29;;;;;;;29.30;16.63;;;2.00;99.90;;;-141.84;82.49;18807.94;5051274;28;20229;-67
2023/01/25 01:31:57;;;;;;;27.70;16.97;;;2.00;99.90;;;-141.84;82.60;18799.81;5051436;28;20230;-67
2023/01/25 01:34:27;;;;;;;29.10;16.13;;;2.00;99.90;;;-141.84;82.82;18763.25;5051436;28;20236;-68
2023/01/25 01:36:55;;;;;;;28.97;16.70;;;2.00;99.90;;;-141.84;82.40;18749.03;5051247;28;20614;-68
2023/01/25 01:39:23;;;;;;;27.17;15.73;;;2.00;99.90;;;-141.84;81.93;18828.28;5051092;28;20225;-66
2023/01/25 01:41:51;;;;;;;27.87;16.03;;;2.00;99.90;;;-141.84;82.04;18757.16;5051595;28;20206;-69
2023/01/25 01:44:42;;;;;;;25.10;14.77;;;2.00;99.90;;;-141.84;81.84;18736.84;5050839;28;20264;-65
2023/01/25 01:47:18;;;;;;;27.10;14.67;;;2.00;99.90;;;-141.84;81.28;18793.72;5051289;28;20236;-68
2023/01/25 01:49:54;;;;;;;24.53;14.67;;;2.00;99.90;;;-141.84;81.01;18759.19;5051193;28;20232;-67
2023/01/25 01:52:29;;;;;;;24.47;13.63;;;2.00;99.90;;;-141.84;80.91;18797.78;5051414;28;20222;-67
2023/01/25 01:55:03;;;;;;;25.47;14.37;;;1.90;99.90;;;-141.84;81.29;18775.44;5051410;28;20256;-66
2023/01/25 01:57:40;;;;;;;27.97;15.03;;;1.90;99.90;;;-141.84;80.74;18777.47;5050810;28;20280;-66
2023/01/25 02:00:16;;;;;;;25.30;14.80;;;1.90;99.90;;;-141.84;81.60;18795.75;5051513;28;20204;-69
2023/01/25 02:02:46;;;;;;;26.43;16.17;;;1.90;99.90;;;-141.84;81.88;18773.41;5051136;28;20716;-66
2023/01/25 02:05:23;;;;;;;25.53;14.67;;;1.90;99.90;;;-141.84;81.17;18773.41;5049825;28;20315;-67
2023/01/25 02:07:54;;;;;;;26.30;15.60;;;2.00;99.90;;;-141.84;81.37;18777.47;5041834;28;20217;-67
2023/01/25 02:10:26;;;;;;;24.77;14.97;;;2.00;99.90;;;-141.84;81.88;18791.69;5037804;28;20237;-68
2023/01/25 02:12:58;;;;;;;22.37;14.70;;;1.90;99.90;;;-141.84;82.49;18805.91;5030628;28;20229;-66
2023/01/25 02:15:33;;;;;;;25.53;14.47;;;1.90;99.90;;;-141.84;82.76;18753.09;5031039;28;20233;-67
2023/01/25 02:18:02;;;;;;;29.13;16.27;;;1.90;99.90;;;-141.84;82.37;18797.78;5031201;28;20208;-67
2023/01/25 02:20:38;;;;;;;24.00;15.03;;;1.90;99.90;;;-141.84;82.43;18722.63;5030472;28;20722;-67
2023/01/25 02:23:19;;;;;;;27.83;15.00;;;1.90;99.90;;;-141.84;82.69;18781.53;5030440;28;20233;-68
2023/01/25 02:25:49;;;;;;;24.80;14.03;;;1.90;99.90;;;-141.84;82.70;18767.31;5030620;28;20256;-67
2023/01/25 02:28:23;;;;;;;25.13;13.57;;;1.90;99.90;;;-141.84;82.39;18757.16;5030166;28;20249;-67
2023/01/25 02:30:51;;;;;;;24.23;14.20;;;1.90;99.90;;;-141.84;82.70;18773.41;5030762;28;20227;-67
2023/01/25 02:33:22;;;;;;;25.27;14.73;;;1.80;99.90;;;-141.84;82.30;18740.91;5030412;28;20202;-66
2023/01/25 02:35:56;;;;;;;23.13;13.80;;;1.80;99.90;;;-141.84;81.87;18775.44;5031290;28;20547;-65
2023/01/25 02:38:25;;;;;;;23.67;13.93;;;1.80;99.90;;;-141.84;81.67;18787.63;5030117;28;20221;-67
2023/01/25 02:41:04;;;;;;;25.50;15.33;;;1.80;99.90;;;-141.84;81.64;18773.41;5030484;28;20224;-69
2023/01/25 02:43:35;;;;;;;28.20;16.67;;;1.90;99.90;;;-141.84;81.33;18785.59;5030166;28;20309;-70
2023/01/25 02:46:14;;;;;;;25.23;14.63;;;1.90;99.90;;;-141.84;81.58;18769.34;5030552;28;20214;-69
2023/01/25 02:48:42;;;;;;;23.03;14.47;;;1.90;99.90;;;-141.84;81.08;18785.59;5030126;28;20739;-67
2023/01/25 02:51:11;;;;;;;22.97;14.40;;;2.00;99.90;;;-141.84;81.84;18791.69;5030803;28;20204;-68
2023/01/25 02:53:39;;;;;;;22.03;14.27;;;1.80;99.90;;;-141.84;80.64;18787.63;5049799;28;20227;-68
2023/01/25 02:56:09;;;;;;;24.80;14.97;;;1.90;99.90;;;-141.84;81.57;18775.44;5034034;28;20265;-68
2023/01/25 02:58:37;;;;;;;27.47;14.83;;;1.90;99.90;;;-141.84;82.12;18797.78;5029845;28;20230;-68
2023/01/25 03:01:05;;;;;;;27.23;15.77;;;1.80;99.90;;;-141.84;82.07;18771.38;5030072;28;20480;-67
2023/01/25 03:03:33;;;;;;;26.53;15.77;;;1.90;99.90;;;-141.84;82.37;18740.91;5030145;28;20256;-69
2023/01/25 03:06:01;;;;;;;26.93;15.67;;;2.00;99.90;;;-141.84;82.39;18759.19;5030672;28;20211;-67
2023/01/25 03:08:30;;;;;;;23.87;15.10;;;1.90;99.90;;;-141.84;82.45;18753.09;5016094;28;20222;-67
2023/01/25 03:10:58;;;;;;;26.73;15.60;;;1.90;99.90;;;-141.84;82.55;18793.72;5029881;28;20226;-66
2023/01/25 03:13:29;;;;;;;28.80;16.13;;;1.80;99.90;;;-141.84;83.05;18763.25;5029469;28;20728;-65
2023/01/25 03:16:01;;;;;;;26.50;14.90;;;1.80;99.90;;;-141.84;83.36;18775.44;5029172;28;20228;-66
2023/01/25 03:18:29;;;;;;;28.77;16.20;;;1.80;99.90;;;-141.84;83.36;18769.34;5029895;28;20189;-66
2023/01/25 03:21:03;;;;;;;30.50;16.47;;;1.80;99.90;;;-141.84;83.32;18773.41;5029869;28;20231;-66
2023/01/25 03:23:31;;;;;;;27.93;16.60;;;1.90;99.90;;;-141.84;82.99;18765.28;5029662;28;20742;-67
2023/01/25 03:26:12;;;;;;;28.70;16.53;;;1.90;99.90;;;-141.84;83.16;18747.00;5029483;28;20226;-66
2023/01/25 03:28:42;;;;;;;25.97;15.23;;;1.90;99.90;;;-141.84;83.08;18781.53;5029679;28;20304;-67
2023/01/25 03:31:14;;;;;;;31.87;16.53;;;1.90;99.90;;;-141.84;83.11;18761.22;5029671;28;20228;-67
2023/01/25 03:33:43;;;;;;;28.10;16.33;;;1.90;99.90;;;-141.84;83.22;18795.75;5029674;28;20309;-67
2023/01/25 03:36:11;;;;;;;29.13;16.63;;;1.90;99.90;;;-141.84;83.20;18775.44;5029975;28;20202;-66
2023/01/25 03:38:40;;;;;;;30.10;16.13;;;1.90;99.90;;;-141.84;82.88;18765.28;5049718;28;20217;-66
2023/01/25 03:41:11;;;;;;;29.63;16.17;;;1.90;99.90;;;-141.84;83.09;18744.97;5049416;28;20229;-68
2023/01/25 03:43:39;;;;;;;28.80;16.73;;;1.90;99.90;;;-141.84;83.18;18769.34;5049490;28;20232;-66
2023/01/25 03:46:09;;;;;;;25.53;15.33;;;1.90;99.90;;;-141.84;83.06;18747.00;5049327;28;20232;-66
2023/01/25 03:48:37;;;;;;;27.67;15.63;;;1.90;99.90;;;-141.84;82.95;18744.97;5049617;28;20246;-66
2023/01/25 03:51:06;;;;;;;27.33;16.13;;;1.90;99.90;;;-141.84;82.29;18818.09;5049665;28;20203;-67
2023/01/25 03:53:34;;;;;;;30.43;17.40;;;2.00;99.90;;;-141.84;82.65;18824.22;5049193;28;20240;-67
2023/01/25 03:56:06;;;;;;;27.83;15.60;;;2.00;99.90;;;-141.84;82.53;18763.25;5049091;28;20233;-66
2023/01/25 03:58:36;;;;;;;25.70;14.30;;;2.00;99.90;;;-141.84;82.94;18753.09;5049288;28;20820;-67
2023/01/25 04:01:07;;;;;;;27.63;16.80;;;1.90;99.90;;;-141.84;83.18;18744.97;5049291;28;20244;-67
2023/01/25 04:03:37;;;;;;;26.40;14.93;;;1.90;99.90;;;-141.84;82.67;18753.09;5049364;28;20227;-66
2023/01/25 04:06:06;;;;;;;26.87;15.30;;;1.80;99.90;;;-141.84;82.34;18765.28;5049870;28;20209;-66
2023/01/25 04:08:35;;;;;;;25.87;14.37;;;1.90;99.90;;;-141.84;81.39;18779.50;5049045;28;20225;-67
2023/01/25 04:11:07;;;;;;;22.63;13.43;;;2.00;99.90;;;-141.84;81.76;18765.28;5049222;28;20323;-67
2023/01/25 04:13:37;;;;;;;27.10;16.00;;;1.90;99.90;;;-141.84;82.13;18761.22;5049521;28;20261;-66
2023/01/25 04:16:07;;;;;;;21.17;13.60;;;1.90;99.90;;;-141.84;82.65;18781.53;5049251;28;20227;-67
2023/01/25 04:18:37;;;;;;;24.80;14.37;;;1.80;99.90;;;-141.84;82.28;18753.09;5049149;28;20738;-66
2023/01/25 04:21:06;;;;;;;28.53;14.93;;;1.90;99.90;;;-141.84;82.57;18753.09;5049616;28;20596;-68
2023/01/25 04:23:34;;;;;;;23.03;14.00;;;1.80;99.90;;;-141.84;82.51;18761.22;5049189;28;20227;-66
2023/01/25 04:26:05;;;;;;;29.93;15.73;;;1.80;99.90;;;-141.84;82.11;18793.72;5049227;28;20229;-67
2023/01/25 04:28:34;;;;;;;23.90;13.90;;;1.70;99.90;;;-141.84;81.84;18769.34;5051328;28;20233;-67
2023/01/25 04:31:04;;;;;;;23.60;13.90;;;1.70;99.90;;;-141.84;81.66;18767.31;5052859;28;20220;-66
2023/01/25 04:33:33;;;;;;;27.53;15.07;;;1.70;99.90;;;-141.84;81.99;18777.47;5053082;28;20227;-67
2023/01/25 04:36:03;;;;;;;24.83;14.67;;;1.70;99.90;;;-141.84;82.32;18757.16;5053403;28;20206;-67
2023/01/25 04:38:31;;;;;;;23.63;14.63;;;1.70;99.90;;;-141.84;82.24;18753.09;5052895;28;20631;-66
2023/01/25 04:41:00;;;;;;;22.53;14.17;;;1.60;99.90;;;-141.84;81.77;18775.44;5052680;28;20229;-66
2023/01/25 04:43:28;;;;;;;26.27;14.50;;;1.70;99.90;;;-141.84;81.93;18765.28;5052586;28;20229;-65
2023/01/25 04:45:56;;;;;;;23.73;13.60;;;1.60;99.90;;;-141.84;82.26;18753.09;5052441;28;20215;-66
2023/01/25 04:48:24;;;;;;;23.43;13.87;;;1.60;99.90;;;-141.84;82.39;18769.34;5052652;28;20232;-67
2023/01/25 04:50:53;;;;;;;23.10;13.90;;;1.70;99.90;;;-141.84;82.08;18791.69;5053542;28;20624;-66
2023/01/25 04:53:22;;;;;;;24.37;13.67;;;1.70;99.90;;;-141.84;82.06;18773.41;5052916;28;20237;-68
2023/01/25 04:55:50;;;;;;;26.53;15.70;;;1.60;99.90;;;-141.84;82.03;18767.31;5052425;28;20252;-66
2023/01/25 04:58:19;;;;;;;27.30;14.37;;;1.70;99.90;;;-141.84;81.75;18753.09;5052489;28;20227;-66
2023/01/25 05:00:47;;;;;;;26.77;15.33;;;1.60;99.90;;;-141.84;82.08;18775.44;5052040;28;20582;-66
2023/01/25 05:03:15;;;;;;;23.87;14.23;;;1.60;99.90;;;-141.84;82.41;18803.88;5052164;28;20205;-68
2023/01/25 05:05:47;;;;;;;27.00;15.20;;;1.60;99.90;;;-141.84;82.03;18769.34;5052575;28;20201;-67
2023/01/25 05:08:15;;;;;;;26.17;16.07;;;1.60;99.90;;;-141.84;82.65;18751.06;5051752;28;20237;-66
2023/01/25 05:10:45;;;;;;;25.63;15.13;;;1.70;99.90;;;-141.84;83.07;18785.59;5051675;28;20232;-66
2023/01/25 05:13:13;;;;;;;27.77;15.10;;;1.70;99.90;;;-141.84;83.59;18787.63;5051885;28;20216;-66
2023/01/25 05:15:41;;;;;;;26.13;15.63;;;1.60;99.90;;;-141.84;83.73;18742.94;5051989;28;20224;-67
2023/01/25 05:18:09;;;;;;;25.37;15.40;;;1.70;99.90;;;-141.84;84.03;18732.78;5052486;28;20303;-67
2023/01/25 05:20:37;;;;;;;27.33;15.63;;;1.70;99.90;;;-141.84;83.93;18738.88;5052156;28;20293;-67
2023/01/25 05:23:05;;;;;;;26.73;15.73;;;1.60;99.90;;;-141.84;83.80;18777.47;5051335;28;20229;-67
2023/01/25 05:28:21;;;;;;;24.47;14.47;;;1.70;99.90;;;-141.84;84.00;18736.84;5051345;28;20233;-66
2023/01/25 05:30:49;;;;;;;27.97;15.50;;;1.70;99.90;;;-141.84;83.87;18728.72;5051648;28;20229;-67
2023/01/25 05:33:17;;;;;;;23.67;15.07;;;1.70;99.90;;;-141.84;82.36;18797.78;5051269;28;20638;-66
2023/01/25 05:35:45;;;;;;;22.97;14.27;;;1.70;99.90;;;-141.84;82.58;18781.53;5052162;28;20364;-66
2023/01/25 05:38:13;;;;;;;24.33;14.53;;;1.70;99.90;;;-141.84;83.22;18759.19;5051012;28;20255;-67
2023/01/25 05:40:41;;;;;;;26.80;14.90;;;1.70;99.90;;;-141.84;83.52;18757.16;5051540;28;20229;-67
2023/01/25 05:43:10;;;;;;;27.87;16.43;;;1.70;99.90;;;-141.84;83.82;18747.00;5041161;28;20234;-67
2023/01/25 05:45:39;;;;;;;26.10;15.43;;;1.70;99.90;;;-141.84;84.00;18755.13;5031157;28;20227;-66
2023/01/25 05:48:08;;;;;;;25.17;14.63;;;1.60;99.90;;;-141.84;84.19;18744.97;5032067;28;20275;-66
2023/01/25 05:50:36;;;;;;;28.83;16.03;;;1.60;99.90;;;-141.84;84.17;18753.09;5031193;28;20222;-68
2023/01/25 05:53:04;;;;;;;28.40;16.37;;;1.70;99.90;;;-141.84;83.34;18755.13;5030979;28;20230;-66
2023/01/25 05:55:34;;;;;;;30.30;16.50;;;1.70;99.90;;;-141.84;83.22;18740.91;5031178;28;20242;-66
2023/01/25 05:58:02;;;;;;;30.23;18.20;;;1.70;99.90;;;-141.84;82.19;18755.13;5030892;28;20351;-67
2023/01/25 06:00:31;;;;;;;27.03;15.73;;;1.80;99.90;;;-141.84;81.93;18757.16;5031330;28;20210;-66
2023/01/25 06:03:02;;;;;;;29.37;16.07;;;1.80;99.90;;;-141.84;82.74;18789.66;5031703;28;20237;-66
2023/01/25 06:05:30;;;;;;;27.50;16.90;;;1.80;99.90;;;-141.84;82.96;18765.28;5031260;28;20237;-66
2023/01/25 06:07:58;;;;;;;26.17;15.27;;;1.80;99.90;;;-141.84;83.12;18759.19;5044414;28;20709;-67
2023/01/25 06:10:27;;;;;;;23.03;15.10;;;1.80;99.90;;;-141.84;83.01;18777.47;5050928;28;20223;-67
2023/01/25 06:12:58;;;;;;;25.93;14.30;;;1.90;99.90;;;-141.84;82.79;18761.22;5051095;28;20225;-67
2023/01/25 06:15:27;;;;;;;25.97;13.87;;;1.90;99.90;;;-141.84;82.92;18738.88;5050762;28;20183;-67
2023/01/25 06:17:55;;;;;;;23.40;13.23;;;1.80;99.90;;;-141.84;82.95;18787.63;5051013;28;20204;-68
2023/01/25 06:20:25;;;;;;;28.27;14.93;;;1.90;99.90;;;-141.84;82.69;18744.97;5050718;28;20225;-67
2023/01/25 06:22:53;;;;;;;25.00;14.47;;;1.90;99.90;;;-141.84;82.47;18738.88;5050423;28;20229;-67
2023/01/25 06:25:22;;;;;;;25.40;13.90;;;1.90;99.90;;;-141.84;82.46;18726.69;5050694;28;20266;-66
2023/01/25 06:27:50;;;;;;;23.30;14.37;;;1.90;99.90;;;-141.84;82.55;18759.19;5050259;28;20368;-66
2023/01/25 06:30:18;;;;;;;24.97;14.17;;;1.90;99.90;;;-141.84;82.17;18755.13;5050745;28;20568;-66
2023/01/25 06:32:49;;;;;;;23.97;14.17;;;1.90;99.90;;;-141.84;82.05;18781.53;5050819;28;20660;-61
2023/01/25 06:35:17;;;;;;;25.53;14.60;;;1.80;99.90;;;-141.84;82.37;18793.72;5050495;28;20228;-61
2023/01/25 06:37:47;;;;;;;24.50;13.43;;;1.80;99.90;;;-141.84;82.45;18724.66;5049939;28;20229;-61
2023/01/25 06:40:16;;;;;;;23.70;13.97;;;1.80;99.90;;;-141.84;82.60;18779.50;5033717;28;20245;-60
2023/01/25 06:42:44;;;;;;;26.80;15.00;;;1.80;99.90;;;-141.84;82.63;18734.81;5030380;28;20232;-61
2023/01/25 06:45:12;;;;;;;24.07;15.10;;;1.80;99.90;;;-141.84;82.69;18744.97;5030322;28;20702;-61
2023/01/25 06:47:40;;;;;;;23.57;13.60;;;1.80;99.90;;;-141.84;82.32;18797.78;5030576;28;20674;-61
2023/01/25 06:50:10;;;;;;;24.93;14.27;;;1.80;99.90;;;-141.84;82.17;18761.22;5029633;28;20230;-60
2023/01/25 06:52:39;;;;;;;23.53;14.10;;;1.80;99.90;;;-141.84;82.49;18781.53;5030087;28;20226;-61
2023/01/25 06:55:12;;;;;;;24.00;13.83;;;1.70;99.90;;;-141.84;82.31;18755.13;5030304;28;20226;-62
2023/01/25 06:57:40;;;;;;;23.43;13.03;;;1.70;99.90;;;-141.84;81.72;18767.31;5030169;28;20245;-62
2023/01/25 07:00:11;;;;;;;21.57;12.77;;;1.70;99.90;;;-141.84;81.87;18769.34;5030275;28;20690;-62
2023/01/25 07:02:39;;;;;;;21.60;12.50;;;1.70;99.90;;;-141.84;82.00;18767.31;5029975;28;20247;-62
2023/01/25 07:05:08;;;;;;;24.07;14.10;;;1.70;99.90;;;-141.84;81.31;18763.25;5014319;28;20726;-61
2023/01/25 07:07:37;;;;;;;22.50;13.57;;;1.70;99.90;;;-141.84;81.70;18763.25;5021074;28;20233;-61
2023/01/25 07:10:08;;;;;;;24.43;14.33;;;1.80;99.90;;;-141.84;81.83;18777.47;5029604;28;20233;-60
2023/01/25 07:12:36;;;;;;;24.40;13.90;;;1.70;99.90;;;-141.84;82.55;18791.69;5030113;28;20233;-63
2023/01/25 07:15:05;;;;;;;23.77;14.93;;;1.70;99.90;;;-141.84;82.89;18718.56;5030782;28;20198;-60
2023/01/25 07:17:34;;;;;;;27.73;15.70;;;1.70;99.90;;;-141.84;82.92;18769.34;5029842;28;20600;-61
2023/01/25 07:20:02;;;;;;;23.30;13.50;;;1.80;99.90;;;-141.84;83.03;18765.28;5029899;28;20231;-61
2023/01/25 07:22:30;;;;;;;24.33;13.53;;;1.80;99.90;;;-141.84;82.83;18769.34;5029807;28;20583;-60
2023/01/25 07:25:01;;;;;;;24.90;14.30;;;1.70;99.90;;;-141.84;82.92;18742.94;5029791;28;20233;-62
2023/01/25 07:27:33;;;;;;;22.60;12.27;;;1.80;99.90;;;-141.84;81.39;18769.34;5030073;28;20200;-61
2023/01/25 07:30:02;;;;;;;18.93;12.07;;;1.90;99.90;;;-141.84;80.87;18789.66;5030463;28;20187;-61
2023/01/25 07:32:30;;;;;;;20.37;11.63;;;1.80;99.90;;;-141.84;81.54;18767.31;5029815;28;20238;-61
2023/01/25 07:34:59;;;;;;;18.87;11.53;;;1.80;99.90;;;-141.84;81.49;18753.09;5025633;28;20218;-61
2023/01/25 07:37:27;;;;;;;20.40;11.67;;;1.70;99.90;;;-141.84;81.73;18773.41;5019319;28;20232;-61
2023/01/25 07:39:57;;;;;;;21.17;12.10;;;1.80;99.90;;;-141.84;81.27;18783.56;5029855;28;20259;-60
2023/01/25 07:42:25;;;;;;;20.77;12.27;;;1.80;99.90;;;-141.84;81.69;18767.31;5029914;28;20222;-61
2023/01/25 07:44:54;;;;;;;19.73;11.37;;;1.80;99.90;;;-141.84;81.08;18791.69;5029913;28;20523;-61
2023/01/25 07:47:22;;;;;;;19.80;11.87;;;1.80;99.90;;;-141.84;81.54;18740.91;5029752;28;20233;-60
2023/01/25 07:49:51;;;;;;;22.80;13.40;;;1.80;99.90;;;-141.84;81.78;18777.47;5029529;28;20251;-61
2023/01/25 07:52:19;;;;;;;19.50;12.13;;;1.70;99.90;;;-141.84;82.10;18749.03;5029547;28;20222;-62
2023/01/25 07:54:48;;;;;;;19.43;12.70;;;1.70;99.90;;;-141.84;82.30;18769.34;5029459;28;20224;-61
2023/01/25 07:57:17;;;;;;;20.33;12.37;;;1.70;99.90;;;-141.84;82.46;18718.56;5029294;28;20244;-61
2023/01/25 07:59:45;;;;;;;24.33;13.20;;;1.70;99.90;;;-141.84;82.51;18744.97;5029619;28;20206;-60
2023/01/25 08:02:14;;;;;;;21.77;12.23;;;1.70;99.90;;;-141.84;82.33;18773.41;5030973;28;20231;-61
2023/01/25 08:04:44;;;;;;;20.30;11.97;;;1.70;99.90;;;-141.84;82.40;18765.28;5033314;28;20245;-61
2023/01/25 08:07:13;;;;;;;22.53;13.53;;;1.70;99.90;;;-141.84;82.43;18789.66;5033395;28;20666;-60
2023/01/25 08:09:42;;;;;;;20.90;13.30;;;1.70;99.90;;;-141.84;82.66;18779.50;5033217;28;20693;-60
2023/01/25 08:12:10;;;;;;;20.70;12.37;;;1.70;99.90;;;-141.84;81.87;18805.91;5033874;28;20210;-60
2023/01/25 08:14:38;;;;;;;19.37;11.80;;;1.80;99.90;;;-141.84;81.82;18773.41;5033290;28;20218;-60
2023/01/25 08:17:06;;;;;;;23.33;12.47;;;1.80;99.90;;;-141.84;80.77;18789.66;5049271;28;20235;-60
2023/01/25 08:19:36;;;;;;;19.07;11.47;;;1.90;99.90;;;-141.84;80.53;18773.41;5052931;28;20311;-60
2023/01/25 08:22:06;;;;;;;20.03;11.13;;;1.90;99.90;;;-141.84;81.02;18765.28;5053071;28;20656;-61
2023/01/25 08:24:35;;;;;;;17.43;11.33;;;1.80;99.90;;;-141.84;80.69;18771.38;5052662;28;20233;-61
2023/01/25 08:27:03;;;;;;;18.20;11.10;;;1.90;99.90;;;-141.84;80.53;18783.56;5053835;28;20212;-61
2023/01/25 08:29:31;;;;;;;19.40;11.43;;;1.90;99.90;;;-141.84;80.20;18765.28;5052656;28;20234;-60
2023/01/25 08:32:03;;;;;;;19.27;11.80;;;1.90;99.90;;;-141.84;80.50;18795.75;5042378;28;20236;-61
2023/01/25 08:34:32;;;;;;;21.07;12.63;;;1.80;99.90;;;-141.84;80.58;18785.59;5022156;28;20232;-61
2023/01/25 08:37:02;;;;;;;21.10;12.30;;;1.80;99.90;;;-141.84;80.67;18781.53;5019185;28;20233;-62
2023/01/25 08:39:30;;;;;;;21.23;12.60;;;1.80;99.90;;;-141.84;80.92;18757.16;5032496;28;20198;-60
2023/01/25 08:41:59;;;;;;;21.10;11.37;;;1.80;99.90;;;-141.84;81.06;18753.09;5033279;28;20202;-60
2023/01/25 08:44:27;;;;;;;20.23;12.43;;;1.70;99.90;;;-141.84;81.15;18771.38;5032005;28;20633;-60
2023/01/25 08:46:55;;;;;;;21.73;13.00;;;1.80;99.90;;;-141.84;81.17;18779.50;5032728;28;20227;-61
2023/01/25 08:49:23;;;;;;;22.70;13.13;;;1.80;99.90;;;-141.84;80.85;18761.22;5032289;28;20731;-61
2023/01/25 08:51:51;;;;;;;22.10;12.83;;;1.80;99.90;;;-141.84;80.79;18765.28;5032636;28;20226;-61
2023/01/25 08:54:21;;;;;;;21.07;13.00;;;1.80;99.90;;;-141.84;80.23;18765.28;5032666;28;20215;-60
2023/01/25 08:56:49;;;;;;;22.77;14.30;;;1.90;99.90;;;-141.84;79.77;18771.38;5032743;28;20234;-60
2023/01/25 08:59:17;;;;;;;21.90;13.23;;;2.00;99.90;;;-141.84;80.09;18767.31;5032289;28;20230;-61
2023/01/25 09:01:45;;;;;;;22.10;14.23;;;1.90;99.90;;;-141.84;80.04;18789.66;5032208;28;20226;-61
2023/01/25 09:04:13;;;;;;;21.13;12.90;;;2.00;99.90;;;-141.84;79.39;18801.84;5032277;28;20919;-60
2023/01/25 09:06:42;;;;;;;18.27;12.30;;;2.00;99.90;;;-141.84;80.09;18822.19;5032266;28;20300;-61
2023/01/25 09:09:11;;;;;;;19.83;12.60;;;2.00;99.90;;;-141.84;80.31;18797.78;5032466;28;20216;-60
2023/01/25 09:11:41;;;;;;;19.20;11.53;;;2.10;99.90;;;-141.84;79.93;18793.72;5052220;28;20223;-61
2023/01/25 09:14:09;;;;;;;20.13;11.80;;;2.10;99.90;;;-141.84;79.59;18801.84;5035017;28;20305;-60
2023/01/25 09:16:37;;;;;;;17.50;11.50;;;2.10;99.90;;;-141.84;79.98;18793.72;5043713;28;20233;-61
2023/01/25 09:19:06;;;;;;;20.33;12.00;;;2.10;99.90;;;-141.84;80.48;18799.81;5052052;28;20712;-61
2023/01/25 09:21:35;;;;;;;18.37;12.83;;;2.10;99.90;;;-141.84;80.55;18769.34;5052033;28;20239;-62
2023/01/25 09:24:05;;;;;;;21.13;13.07;;;2.20;99.90;;;-141.84;79.82;18830.31;5052738;28;20226;-61
2023/01/25 09:26:37;;;;;;;21.53;12.80;;;2.30;99.90;;;-141.84;79.50;18805.91;5051776;28;20316;-61
2023/01/25 09:29:09;;;;;;;21.47;14.07;;;2.30;99.90;;;-141.84;79.79;18824.22;5051482;28;20375;-61
2023/01/25 09:31:42;;;;;;;21.60;13.70;;;2.30;99.90;;;-141.84;79.35;18765.28;5051903;28;20253;-62
2023/01/25 09:34:12;;;;;;;23.80;14.20;;;2.40;99.90;;;-141.84;79.34;18803.88;5052229;28;20232;-60
2023/01/25 09:36:41;;;;;;;19.50;12.50;;;2.40;99.90;;;-141.84;79.45;18842.50;5051718;28;20222;-60
2023/01/25 09:39:11;;;;;;;21.37;12.70;;;2.40;99.90;;;-141.84;79.51;18842.50;5052204;28;20213;-61
2023/01/25 09:42:21;;;;;;;26.27;14.23;;;2.40;99.90;;;-141.84;78.85;18818.09;5032017;28;20680;-61
2023/01/25 09:45:19;;;;;;;22.77;13.90;;;2.30;99.90;;;-141.84;79.45;18805.91;5032038;28;20221;-61
2023/01/25 09:47:58;;;;;;;22.10;14.27;;;2.30;99.90;;;-141.84;79.56;18803.88;5031664;28;20213;-61
2023/01/25 09:50:59;;;;;;;26.97;15.63;;;2.30;99.90;;;-141.84;79.88;18789.66;5049754;28;20315;-61
2023/01/25 09:53:35;;;;;;;24.53;16.07;;;2.30;99.90;;;-141.84;78.85;18826.25;5051314;28;20243;-60
2023/01/25 09:56:12;;;;;;;28.37;15.27;;;2.30;99.90;;;-141.84;77.59;18844.53;5051089;28;20753;-61
2023/01/25 09:58:45;;;;;;;24.07;13.77;;;2.40;99.90;;;-141.84;78.48;18807.94;5051258;28;20702;-60
2023/01/25 10:01:27;;;;;;;21.63;14.13;;;2.40;99.90;;;-141.84;79.01;18826.25;5051247;28;20226;-61
2023/01/25 10:04:14;;;;;;;22.53;13.53;;;2.40;99.90;;;-141.84;78.86;18805.91;5051303;28;20233;-62
2023/01/25 10:06:45;;;;;;;20.50;13.20;;;2.50;99.90;;;-141.84;79.25;18828.28;5051161;28;20271;-61
2023/01/25 10:09:39;;;;;;;21.90;13.87;;;2.40;99.90;;;-141.84;79.16;18830.31;5050897;28;20612;-62
2023/01/25 10:12:18;;;;;;;25.13;14.13;;;2.30;99.90;;;-141.84;79.19;18793.72;5051501;28;20180;-62
2023/01/25 10:14:47;;;;;;;22.10;14.30;;;2.30;99.90;;;-141.84;79.24;18824.22;5051267;28;20213;-61
2023/01/25 10:17:31;;;;;;;22.47;14.47;;;2.30;99.90;;;-141.84;78.11;18836.41;5050805;28;20225;-60